Airfield :
LOGIN :

Register | Disclaimer

   EN    FR    IT 

 










Legend :    VFR   Marginal VFR   IFR   Intensive IFR   Very Intensive IFR
Visi :
Ceiling :
>= 8 km
>= 3000ft
5 to 8 km
1000 to 3000 ft
1500m to 5 km
500 to 1000 ft
800 to 1500m
200 to 500 ft
< 800m
< 200 ft
Symbols :   Thunderstorms  Fog  Heavy snow  Heavy precipitations  Wind > 20 kt
SIGMETs :     Misc.  Thunderstorms  Icing  Turbulence  Mountain Waves  Volcanic Ashes






- Airport Elevation : 600 ft
- IATA code : VIE


LOWW - Vienna Schwechat

CURRENT METAR :
  • 210150Z 25002KT 3800 0350S R29/P1500N FZBCFG FEW000 M03/M04 Q1045 R88/19//95 BECMG 1200

EXPIRED METARs :
  • 210120Z 22003KT 4800 0400S R29/P1500N FZBCFG FEW000 M05/M06 Q1045 R88/19//95 TEMPO 1200
  • 210050Z 17002KT 0800 0350S R29/P1500U FZBCFG SCT001 M05/M06 Q1046 R88/19//95 TEMPO BKN001
  • 210020Z VRB01KT 0450 R29/P1500U FZBCFG SCT000 M04/M04 Q1046 R88/19//95 TEMPO BKN001
  • 202350Z VRB01KT 5000 0400N R29/P1500U FZBCFG FEW001 SCT002 M02/M02 Q1046 R88/19//95 TEMPO 0500 FZFG BKN002
  • 202320Z VRB01KT 5000 0400S R29/P1500D FZBCFG FEW000 SCT024 M01/M02 Q1046 R88/19//95 TEMPO 3000

TAF TAF LOWW
Valid from the 21 at 00:00 until the 22 at 06:00 UTC


202315Z 2100/2206 VRB02KT 6000 FEW001 SCT025 TX02/2113Z TNM04/2203Z
BECMG 2100/2103 0500 FZFG VV001
TEMPO 2103/2109 0300
BECMG 2109/2111 12005KT 2000 BR FEW002 OVC004
BECMG 2116/2118 0800 FZFG FEW001 OVC002
TEMPO 2120/2206 0400 VV001



MET'MAP, your aeronautical weather chart ! - Copyright ORBIFLY December 2007 - Disclaimer

ORBIFLY MET'MAP TEAM :

Programming & Development : Alexandra Zaïnal
Concept & original design : Baudouin d'Aumeries
Assistance for programming : Marc-Olivier Méhu
Technical & hardware support : Manuel Goepfert

Contact : metmap@orbifly.com




SOURCES & CREDITS :

   NOAA